Time,TemperatureF,DewpointF,PressureIn,WindDirection,WindDirectionDegrees,WindSpeedMPH,WindSpeedGustMPH,Humidity,HourlyPrecipIn,Conditions,Clouds,dailyrainin,SoftwareType,DateUTC
2013-04-15 00:00:00,61.2,44.4,30.11,North,355,2.0,2.0,54,0.00,,,0.00,Wunderground v.1.15,2013-04-15 04:00:00,
2013-04-15 00:10:00,60.9,45.1,30.11,North,355,0.0,0.0,56,0.00,,,0.00,Wunderground v.1.15,2013-04-15 04:10:00,
2013-04-15 00:20:00,60.7,44.4,30.12,North,9,1.0,1.0,55,0.00,,,0.00,Wunderground v.1.15,2013-04-15 04:20:00,
2013-04-15 00:30:00,60.6,44.3,30.12,NNW,347,1.0,2.0,55,0.00,,,0.00,Wunderground v.1.15,2013-04-15 04:30:00,
2013-04-15 00:40:00,60.5,44.7,30.13,NNW,347,1.0,1.0,56,0.00,,,0.00,Wunderground v.1.15,2013-04-15 04:40:00,
2013-04-15 00:50:00,60.3,44.5,30.13,NNW,347,0.0,5.0,56,0.00,,,0.00,Wunderground v.1.15,2013-04-15 04:50:00,
2013-04-15 01:00:00,60.2,44.4,30.13,NNW,347,1.0,1.0,56,0.00,,,0.00,Wunderground v.1.15,2013-04-15 05:00:00,
2013-04-15 01:10:00,60.0,44.7,30.14,North,11,1.0,1.0,57,0.00,,,0.00,Wunderground v.1.15,2013-04-15 05:10:00,
2013-04-15 01:20:00,59.9,45.1,30.14,North,11,1.0,1.0,58,0.00,,,0.00,Wunderground v.1.15,2013-04-15 05:20:00,
2013-04-15 01:30:00,59.4,45.9,30.14,North,355,1.0,1.0,61,0.00,,,0.00,Wunderground v.1.15,2013-04-15 05:30:00,
2013-04-15 01:40:00,58.9,46.7,30.15,North,355,0.0,4.0,64,0.00,,,0.00,Wunderground v.1.15,2013-04-15 05:40:00,
2013-04-15 01:50:00,58.3,46.6,30.15,North,355,0.0,4.0,65,0.00,,,0.00,Wunderground v.1.15,2013-04-15 05:50:00,
2013-04-15 02:00:00,58.2,46.5,30.15,North,355,1.0,2.0,65,0.00,,,0.00,Wunderground v.1.15,2013-04-15 06:00:00,
2013-04-15 02:10:00,58.2,46.9,30.16,North,355,0.0,0.0,66,0.00,,,0.00,Wunderground v.1.15,2013-04-15 06:10:00,
2013-04-15 02:20:00,57.8,48.5,30.17,North,355,0.0,0.0,71,0.00,,,0.00,Wunderground v.1.15,2013-04-15 06:20:00,
2013-04-15 02:30:00,57.1,48.5,30.17,North,355,0.0,0.0,73,0.00,,,0.00,Wunderground v.1.15,2013-04-15 06:30:00,
2013-04-15 02:40:00,56.4,48.9,30.17,North,355,0.0,5.0,76,0.00,,,0.00,Wunderground v.1.15,2013-04-15 06:40:00,
2013-04-15 02:50:00,55.8,50.4,30.17,North,355,0.0,5.0,82,0.00,,,0.01,Wunderground v.1.15,2013-04-15 06:50:00,
2013-04-15 03:00:00,55.0,50.3,30.17,North,355,0.0,0.0,84,0.00,,,0.01,Wunderground v.1.15,2013-04-15 07:00:00,
2013-04-15 03:50:00,53.5,51.2,30.18,North,355,0.0,2.0,92,0.00,,,0.03,Wunderground v.1.15,2013-04-15 07:50:00,
2013-04-15 04:00:00,53.4,51.4,30.18,North,355,0.0,0.0,93,0.00,,,0.03,Wunderground v.1.15,2013-04-15 08:00:00,
2013-04-15 04:10:00,53.1,51.1,30.18,North,355,0.0,0.0,93,0.00,,,0.03,Wunderground v.1.15,2013-04-15 08:10:00,
2013-04-15 04:20:00,52.9,50.9,30.18,North,355,0.0,0.0,93,0.00,,,0.04,Wunderground v.1.15,2013-04-15 08:20:00,
2013-04-15 04:30:00,52.8,50.8,30.18,North,355,1.0,1.0,93,0.00,,,0.04,Wunderground v.1.15,2013-04-15 08:30:00,
2013-04-15 04:40:00,52.7,50.7,30.18,North,355,1.0,1.0,93,0.00,,,0.04,Wunderground v.1.15,2013-04-15 08:40:00,
2013-04-15 04:50:00,52.8,50.8,30.18,North,355,0.0,2.0,93,0.00,,,0.04,Wunderground v.1.15,2013-04-15 08:50:00,
2013-04-15 05:00:00,52.8,51.1,30.18,North,355,0.0,0.0,94,0.00,,,0.04,Wunderground v.1.15,2013-04-15 09:00:00,
2013-04-15 05:10:00,52.7,51.0,30.19,North,355,0.0,0.0,94,0.00,,,0.04,Wunderground v.1.15,2013-04-15 09:10:00,
2013-04-15 05:20:00,52.6,50.9,30.19,North,355,0.0,0.0,94,0.00,,,0.05,Wunderground v.1.15,2013-04-15 09:20:00,
2013-04-15 05:30:00,52.6,51.2,30.20,North,355,0.0,0.0,95,0.00,,,0.05,Wunderground v.1.15,2013-04-15 09:30:00,
2013-04-15 05:40:00,52.5,51.1,30.20,North,355,0.0,3.0,95,0.04,,,0.06,Wunderground v.1.15,2013-04-15 09:40:00,
2013-04-15 05:50:00,52.6,51.2,30.20,North,355,0.0,3.0,95,0.04,,,0.07,Wunderground v.1.15,2013-04-15 09:50:00,
2013-04-15 06:00:00,52.6,51.2,30.19,North,355,0.0,0.0,95,0.05,,,0.08,Wunderground v.1.15,2013-04-15 10:00:00,
2013-04-15 06:10:00,52.6,51.2,30.20,North,355,0.0,0.0,95,0.05,,,0.08,Wunderground v.1.15,2013-04-15 10:10:00,
2013-04-15 06:20:00,52.6,51.2,30.20,North,355,0.0,0.0,95,0.04,,,0.09,Wunderground v.1.15,2013-04-15 10:20:00,
2013-04-15 06:30:00,52.5,51.1,30.20,North,355,0.0,0.0,95,0.04,,,0.09,Wunderground v.1.15,2013-04-15 10:30:00,
2013-04-15 06:40:00,52.4,51.3,30.21,North,355,0.0,1.0,96,0.00,,,0.10,Wunderground v.1.15,2013-04-15 10:40:00,
2013-04-15 06:50:00,52.4,51.3,30.22,North,355,0.0,1.0,96,0.00,,,0.10,Wunderground v.1.15,2013-04-15 10:50:00,
2013-04-15 07:00:00,52.4,51.3,30.22,North,355,0.0,0.0,96,0.00,,,0.11,Wunderground v.1.15,2013-04-15 11:00:00,
2013-04-15 07:10:00,52.3,51.2,30.22,North,355,0.0,0.0,96,0.07,,,0.12,Wunderground v.1.15,2013-04-15 11:10:00,
2013-04-15 07:20:00,52.3,51.2,30.22,North,355,0.0,0.0,96,0.04,,,0.13,Wunderground v.1.15,2013-04-15 11:20:00,
2013-04-15 07:30:00,52.3,51.2,30.23,NNE,28,0.0,0.0,96,0.04,,,0.13,Wunderground v.1.15,2013-04-15 11:30:00,
2013-04-15 07:40:00,52.4,51.3,30.23,NNW,327,2.0,2.0,96,0.05,,,0.14,Wunderground v.1.15,2013-04-15 11:40:00,
2013-04-15 07:50:00,52.3,51.2,30.23,NNW,331,0.0,2.0,96,0.04,,,0.15,Wunderground v.1.15,2013-04-15 11:50:00,
2013-04-15 08:00:00,52.1,51.0,30.23,NNW,331,0.0,0.0,96,0.04,,,0.15,Wunderground v.1.15,2013-04-15 12:00:00,
2013-04-15 08:10:00,52.2,51.1,30.23,NNW,331,1.0,1.0,96,0.00,,,0.16,Wunderground v.1.15,2013-04-15 12:10:00,
2013-04-15 08:20:00,52.3,51.2,30.23,NNW,331,0.0,0.0,96,0.00,,,0.16,Wunderground v.1.15,2013-04-15 12:20:00,
2013-04-15 08:30:00,52.3,51.2,30.23,NNW,331,1.0,2.0,96,0.00,,,0.16,Wunderground v.1.15,2013-04-15 12:30:00,
2013-04-15 08:40:00,52.4,51.3,30.23,NNW,331,0.0,4.0,96,0.00,,,0.17,Wunderground v.1.15,2013-04-15 12:40:00,
2013-04-15 08:50:00,52.6,51.8,30.23,NNW,331,0.0,4.0,97,0.00,,,0.17,Wunderground v.1.15,2013-04-15 12:50:00,
2013-04-15 09:00:00,52.8,51.7,30.23,NNW,331,0.0,0.0,96,0.04,,,0.18,Wunderground v.1.15,2013-04-15 13:00:00,
2013-04-15 09:10:00,52.6,51.2,30.24,East,97,0.0,0.0,95,0.00,,,0.18,Wunderground v.1.15,2013-04-15 13:10:00,
2013-04-15 09:20:00,52.4,51.0,30.24,East,97,0.0,0.0,95,0.00,,,0.18,Wunderground v.1.15,2013-04-15 13:20:00,
2013-04-15 09:30:00,52.8,51.7,30.24,East,97,0.0,0.0,96,0.00,,,0.18,Wunderground v.1.15,2013-04-15 13:30:00,
2013-04-15 09:40:00,53.1,52.0,30.24,East,97,0.0,3.0,96,0.00,,,0.18,Wunderground v.1.15,2013-04-15 13:40:00,
2013-04-15 09:50:00,53.2,51.8,30.24,SE,130,1.0,1.0,95,0.00,,,0.18,Wunderground v.1.15,2013-04-15 13:50:00,
2013-04-15 10:00:00,53.3,51.9,30.24,SE,130,1.0,1.0,95,0.00,,,0.18,Wunderground v.1.15,2013-04-15 14:00:00,
2013-04-15 10:10:00,53.4,52.0,30.24,SE,130,0.0,0.0,95,0.00,,,0.18,Wunderground v.1.15,2013-04-15 14:10:00,
2013-04-15 10:20:00,53.7,52.6,30.24,NNE,25,1.0,1.0,96,0.00,,,0.18,Wunderground v.1.15,2013-04-15 14:20:00,
2013-04-15 10:30:00,54.0,52.9,30.25,North,355,1.0,2.0,96,0.00,,,0.18,Wunderground v.1.15,2013-04-15 14:30:00,
2013-04-15 10:40:00,54.3,53.2,30.24,North,360,2.0,2.0,96,0.00,,,0.18,Wunderground v.1.15,2013-04-15 14:40:00,
2013-04-15 10:50:00,54.8,53.7,30.24,North,355,1.0,2.0,96,0.00,,,0.18,Wunderground v.1.15,2013-04-15 14:50:00,
2013-04-15 11:00:00,55.1,53.7,30.24,North,355,2.0,2.0,95,0.00,,,0.18,Wunderground v.1.15,2013-04-15 15:00:00,
2013-04-15 11:10:00,55.3,53.9,30.24,NNW,348,2.0,2.0,95,0.00,,,0.18,Wunderground v.1.15,2013-04-15 15:10:00,
2013-04-15 11:20:00,55.2,53.8,30.24,NNW,348,1.0,1.0,95,0.00,,,0.19,Wunderground v.1.15,2013-04-15 15:20:00,
2013-04-15 11:30:00,55.4,54.0,30.24,NNW,348,1.0,1.0,95,0.00,,,0.19,Wunderground v.1.15,2013-04-15 15:30:00,
2013-04-15 11:40:00,55.9,54.8,30.25,NNW,348,0.0,4.0,96,0.00,,,0.19,Wunderground v.1.15,2013-04-15 15:40:00,
2013-04-15 11:50:00,56.3,55.2,30.25,NE,54,1.0,1.0,96,0.00,,,0.19,Wunderground v.1.15,2013-04-15 15:50:00,
2013-04-15 12:00:00,56.3,54.9,30.24,North,355,1.0,1.0,95,0.00,,,0.19,Wunderground v.1.15,2013-04-15 16:00:00,
2013-04-15 12:10:00,56.2,54.8,30.23,North,360,1.0,2.0,95,0.00,,,0.19,Wunderground v.1.15,2013-04-15 16:10:00,
2013-04-15 12:20:00,56.2,54.5,30.24,NNW,347,2.0,2.0,94,0.00,,,0.19,Wunderground v.1.15,2013-04-15 16:20:00,
2013-04-15 12:30:00,56.5,54.8,30.24,North,355,1.0,1.0,94,0.00,,,0.19,Wunderground v.1.15,2013-04-15 16:30:00,
2013-04-15 12:40:00,57.3,55.9,30.23,NNW,333,2.0,3.0,95,0.00,,,0.19,Wunderground v.1.15,2013-04-15 16:40:00,
2013-04-15 12:50:00,58.7,56.1,30.23,NNW,334,2.0,3.0,91,0.00,,,0.19,Wunderground v.1.15,2013-04-15 16:50:00,
2013-04-15 13:00:00,58.8,55.3,30.23,North,355,3.0,5.0,88,0.00,,,0.19,Wunderground v.1.15,2013-04-15 17:00:00,
2013-04-15 13:10:00,58.8,54.6,30.23,NNW,341,3.0,3.0,86,0.00,,,0.19,Wunderground v.1.15,2013-04-15 17:10:00,
2013-04-15 13:20:00,59.6,55.7,30.23,NNW,341,1.0,1.0,87,0.00,,,0.19,Wunderground v.1.15,2013-04-15 17:20:00,
2013-04-15 13:30:00,60.2,56.0,30.24,SSE,149,1.0,1.0,86,0.00,,,0.19,Wunderground v.1.15,2013-04-15 17:30:00,
2013-04-15 13:40:00,60.5,55.3,30.24,NW,316,1.0,6.0,83,0.00,,,0.19,Wunderground v.1.15,2013-04-15 17:40:00,
2013-04-15 13:50:00,59.9,55.1,30.23,ENE,77,1.0,1.0,84,0.00,,,0.19,Wunderground v.1.15,2013-04-15 17:50:00,
2013-04-15 14:00:00,60.0,55.8,30.23,NE,37,1.0,2.0,86,0.00,,,0.19,Wunderground v.1.15,2013-04-15 18:00:00,
2013-04-15 14:10:00,60.0,55.2,30.23,North,355,2.0,4.0,84,0.00,,,0.19,Wunderground v.1.15,2013-04-15 18:10:00,
2013-04-15 14:20:00,59.6,55.1,30.23,North,355,3.0,3.0,85,0.00,,,0.19,Wunderground v.1.15,2013-04-15 18:20:00,
2013-04-15 14:30:00,60.0,55.2,30.23,NNW,344,1.0,1.0,84,0.00,,,0.19,Wunderground v.1.15,2013-04-15 18:30:00,
2013-04-15 14:40:00,60.3,54.8,30.23,NE,43,2.0,4.0,82,0.00,,,0.19,Wunderground v.1.15,2013-04-15 18:40:00,
2013-04-15 14:50:00,60.1,54.6,30.23,North,355,2.0,2.0,82,0.00,,,0.19,Wunderground v.1.15,2013-04-15 18:50:00,
2013-04-15 15:00:00,60.5,55.0,30.23,ENE,78,1.0,3.0,82,0.00,,,0.19,Wunderground v.1.15,2013-04-15 19:00:00,
2013-04-15 15:10:00,61.1,55.2,30.23,NNE,27,1.0,2.0,81,0.00,,,0.19,Wunderground v.1.15,2013-04-15 19:10:00,
2013-04-15 15:20:00,61.3,54.4,30.23,South,169,1.0,3.0,78,0.00,,,0.19,Wunderground v.1.15,2013-04-15 19:20:00,
2013-04-15 15:30:00,61.3,53.7,30.22,North,350,2.0,2.0,76,0.00,,,0.19,Wunderground v.1.15,2013-04-15 19:30:00,
2013-04-15 15:40:00,61.4,53.8,30.22,NE,44,1.0,6.0,76,0.00,,,0.19,Wunderground v.1.15,2013-04-15 19:40:00,
2013-04-15 15:50:00,61.3,54.4,30.22,North,5,2.0,2.0,78,0.00,,,0.19,Wunderground v.1.15,2013-04-15 19:50:00,
2013-04-15 16:00:00,61.2,55.0,30.22,North,350,2.0,2.0,80,0.00,,,0.19,Wunderground v.1.15,2013-04-15 20:00:00,
2013-04-15 16:10:00,61.6,55.0,30.21,NW,316,0.0,0.0,79,0.00,,,0.19,Wunderground v.1.15,2013-04-15 20:10:00,
2013-04-15 16:20:00,62.0,54.7,30.21,WSW,252,1.0,1.0,77,0.00,,,0.19,Wunderground v.1.15,2013-04-15 20:20:00,
2013-04-15 16:30:00,61.9,54.6,30.21,ESE,107,1.0,1.0,77,0.00,,,0.19,Wunderground v.1.15,2013-04-15 20:30:00,
2013-04-15 16:40:00,61.7,54.1,30.21,ESE,107,0.0,5.0,76,0.00,,,0.19,Wunderground v.1.15,2013-04-15 20:40:00,
2013-04-15 16:50:00,61.6,54.0,30.22,ESE,107,0.0,5.0,76,0.00,,,0.19,Wunderground v.1.15,2013-04-15 20:50:00,
2013-04-15 17:00:00,61.3,53.7,30.22,SSE,167,0.0,0.0,76,0.00,,,0.19,Wunderground v.1.15,2013-04-15 21:00:00,
2013-04-15 17:10:00,61.1,53.8,30.21,SSE,167,0.0,1.0,77,0.00,,,0.19,Wunderground v.1.15,2013-04-15 21:10:00,
2013-04-15 17:20:00,61.0,53.7,30.22,SSE,167,1.0,1.0,77,0.00,,,0.19,Wunderground v.1.15,2013-04-15 21:20:00,
2013-04-15 17:30:00,60.9,53.6,30.22,SSE,167,0.0,0.0,77,0.00,,,0.19,Wunderground v.1.15,2013-04-15 21:30:00,
2013-04-15 17:40:00,60.8,53.5,30.23,East,93,1.0,2.0,77,0.00,,,0.19,Wunderground v.1.15,2013-04-15 21:40:00,
2013-04-15 17:50:00,60.6,53.3,30.22,East,93,0.0,2.0,77,0.00,,,0.19,Wunderground v.1.15,2013-04-15 21:50:00,
2013-04-15 18:00:00,60.5,53.6,30.23,East,93,0.0,1.0,78,0.00,,,0.19,Wunderground v.1.15,2013-04-15 22:00:00,
2013-04-15 18:10:00,60.5,54.0,30.23,NE,53,1.0,1.0,79,0.00,,,0.19,Wunderground v.1.15,2013-04-15 22:10:00,
2013-04-15 18:20:00,60.5,53.6,30.23,ENE,75,1.0,2.0,78,0.00,,,0.19,Wunderground v.1.15,2013-04-15 22:20:00,
2013-04-15 18:30:00,60.5,53.6,30.23,ENE,75,0.0,0.0,78,0.00,,,0.19,Wunderground v.1.15,2013-04-15 22:30:00,
2013-04-15 18:40:00,60.4,53.5,30.24,ENE,72,0.0,3.0,78,0.00,,,0.19,Wunderground v.1.15,2013-04-15 22:40:00,
2013-04-15 18:50:00,60.2,53.3,30.24,NE,54,1.0,1.0,78,0.00,,,0.19,Wunderground v.1.15,2013-04-15 22:50:00,
2013-04-15 19:00:00,60.1,53.6,30.24,NE,54,1.0,1.0,79,0.00,,,0.19,Wunderground v.1.15,2013-04-15 23:00:00,
2013-04-15 19:10:00,60.0,53.5,30.24,NE,54,0.0,0.0,79,0.00,,,0.19,Wunderground v.1.15,2013-04-15 23:10:00,
2013-04-15 19:20:00,59.9,53.7,30.25,East,95,1.0,1.0,80,0.00,,,0.19,Wunderground v.1.15,2013-04-15 23:20:00,
2013-04-15 19:30:00,59.6,54.1,30.25,ESE,113,1.0,1.0,82,0.00,,,0.19,Wunderground v.1.15,2013-04-15 23:30:00,
2013-04-15 19:40:00,59.2,54.0,30.25,East,86,1.0,2.0,83,0.00,,,0.19,Wunderground v.1.15,2013-04-15 23:40:00,
2013-04-15 19:50:00,58.8,54.3,30.25,NE,49,1.0,1.0,85,0.00,,,0.19,Wunderground v.1.15,2013-04-15 23:50:00,
2013-04-15 20:00:00,57.9,54.4,30.26,North,11,1.0,1.0,88,0.00,,,0.19,Wunderground v.1.15,2013-04-16 00:00:00,
2013-04-15 20:10:00,57.4,54.8,30.26,North,11,0.0,0.0,91,0.00,,,0.19,Wunderground v.1.15,2013-04-16 00:10:00,
2013-04-15 20:20:00,57.1,54.8,30.27,North,11,0.0,0.0,92,0.00,,,0.20,Wunderground v.1.15,2013-04-16 00:20:00,
2013-04-15 20:30:00,56.9,54.6,30.27,North,11,0.0,0.0,92,0.00,,,0.20,Wunderground v.1.15,2013-04-16 00:30:00,
2013-04-15 20:40:00,56.9,54.9,30.27,North,11,0.0,4.0,93,0.00,,,0.20,Wunderground v.1.15,2013-04-16 00:40:00,
2013-04-15 20:50:00,56.8,54.8,30.28,North,11,0.0,4.0,93,0.00,,,0.20,Wunderground v.1.15,2013-04-16 00:50:00,
2013-04-15 21:00:00,56.7,54.7,30.28,North,11,0.0,0.0,93,0.00,,,0.20,Wunderground v.1.15,2013-04-16 01:00:00,
2013-04-15 21:10:00,56.7,54.7,30.28,North,11,0.0,0.0,93,0.00,,,0.20,Wunderground v.1.15,2013-04-16 01:10:00,
2013-04-15 21:20:00,56.7,54.7,30.29,North,11,0.0,0.0,93,0.00,,,0.20,Wunderground v.1.15,2013-04-16 01:20:00,
2013-04-15 21:30:00,56.6,54.6,30.29,North,11,0.0,0.0,93,0.00,,,0.20,Wunderground v.1.15,2013-04-16 01:30:00,
2013-04-15 21:40:00,56.7,54.7,30.29,North,11,0.0,1.0,93,0.00,,,0.20,Wunderground v.1.15,2013-04-16 01:40:00,
2013-04-15 21:50:00,56.7,54.7,30.29,North,11,0.0,1.0,93,0.00,,,0.20,Wunderground v.1.15,2013-04-16 01:50:00,
2013-04-15 22:00:00,56.8,54.5,30.29,North,11,0.0,1.0,92,0.00,,,0.20,Wunderground v.1.15,2013-04-16 02:00:00,
2013-04-15 22:10:00,56.8,54.8,30.29,North,11,0.0,0.0,93,0.00,,,0.20,Wunderground v.1.15,2013-04-16 02:10:00,
2013-04-15 22:20:00,56.8,54.5,30.29,North,11,0.0,0.0,92,0.00,,,0.20,Wunderground v.1.15,2013-04-16 02:20:00,
2013-04-15 22:30:00,56.7,54.4,30.30,North,11,0.0,0.0,92,0.00,,,0.20,Wunderground v.1.15,2013-04-16 02:30:00,
2013-04-15 22:40:00,56.7,54.1,30.30,North,11,0.0,2.0,91,0.00,,,0.20,Wunderground v.1.15,2013-04-16 02:40:00,
2013-04-15 22:50:00,56.7,53.8,30.30,North,11,0.0,2.0,90,0.00,,,0.20,Wunderground v.1.15,2013-04-16 02:50:00,
2013-04-15 23:00:00,56.7,53.8,30.31,North,11,0.0,0.0,90,0.00,,,0.20,Wunderground v.1.15,2013-04-16 03:00:00,
2013-04-15 23:10:00,56.8,53.9,30.31,North,11,0.0,0.0,90,0.00,,,0.20,Wunderground v.1.15,2013-04-16 03:10:00,
2013-04-15 23:20:00,56.8,54.2,30.30,North,11,0.0,0.0,91,0.00,,,0.20,Wunderground v.1.15,2013-04-16 03:20:00,
2013-04-15 23:30:00,56.6,54.0,30.30,North,11,0.0,0.0,91,0.00,,,0.20,Wunderground v.1.15,2013-04-16 03:30:00,
2013-04-15 23:40:00,56.5,53.9,30.30,North,11,0.0,1.0,91,0.00,,,0.20,Wunderground v.1.15,2013-04-16 03:40:00,
2013-04-15 23:50:00,56.4,54.1,30.31,North,11,0.0,1.0,92,0.00,,,0.20,Wunderground v.1.15,2013-04-16 03:50:00,